Time;durP1;ratioP1;P1;durP2;ratioP2;P2;SDS_P1;SDS_P2;PMS_P1;PMS_P2;Temp;Humidity;BMP_temperature;BMP_pressure;BME280_temperature;BME280_humidity;BME280_pressure;Samples;Min_cycle;Max_cycle;Signal;HPM_P1;HPM_P2
2022/10/06 00:00:32;;;;;;;11.68;1.65;;;14.80;99.90;;;;;;4977159;28;20174;-81
2022/10/06 00:02:57;;;;;;;13.48;1.55;;;14.80;99.90;;;;;;4977511;28;20213;-82
2022/10/06 00:05:23;;;;;;;5.93;1.70;;;14.80;99.90;;;;;;4958185;29;20565;-80
2022/10/06 00:07:48;;;;;;;5.00;1.35;;;14.70;99.90;;;;;;4957585;29;20217;-78
2022/10/06 00:10:14;;;;;;;7.07;1.35;;;14.70;99.90;;;;;;4957966;29;20589;-80
2022/10/06 00:12:49;;;;;;;6.18;1.63;;;14.70;99.90;;;;;;4957671;28;20195;-79
2022/10/06 00:15:20;;;;;;;3.85;1.00;;;14.80;99.90;;;;;;4958896;28;20193;-83
2022/10/06 00:17:46;;;;;;;7.50;1.20;;;14.70;99.90;;;;;;4958379;28;20225;-79
2022/10/06 00:20:13;;;;;;;4.93;1.00;;;14.60;99.90;;;;;;4957975;28;20167;-83
2022/10/06 00:22:43;;;;;;;3.33;0.90;;;14.50;99.90;;;;;;4957506;28;20187;-85
2022/10/06 00:25:11;;;;;;;5.60;1.30;;;14.60;99.90;;;;;;4957858;28;20636;-81
2022/10/06 00:27:39;;;;;;;3.67;1.08;;;14.60;99.90;;;;;;4959379;28;20228;-84
2022/10/06 00:30:08;;;;;;;4.10;1.17;;;14.40;99.90;;;;;;4958626;28;20183;-84
2022/10/06 00:32:34;;;;;;;8.55;1.33;;;14.40;99.90;;;;;;4959482;28;20201;-89
2022/10/06 00:35:00;;;;;;;4.63;1.20;;;14.40;99.90;;;;;;4960201;28;20171;-83
2022/10/06 00:37:27;;;;;;;19.02;1.83;;;14.40;99.90;;;;;;4964786;29;20585;-79
2022/10/06 00:39:52;;;;;;;4.50;1.05;;;14.40;99.90;;;;;;4959107;28;20174;-79
2022/10/06 00:42:28;;;;;;;6.05;1.10;;;14.40;99.90;;;;;;4957002;28;20198;-83
2022/10/06 00:44:58;;;;;;;5.50;1.17;;;14.60;99.90;;;;;;4958064;28;20232;-79
2022/10/06 00:47:28;;;;;;;5.32;1.33;;;14.50;99.90;;;;;;4961209;28;20206;-78
2022/10/06 00:49:54;;;;;;;8.18;1.30;;;14.50;99.90;;;;;;4963182;28;20170;-81
2022/10/06 00:52:24;;;;;;;12.00;1.67;;;14.30;99.90;;;;;;4960402;28;20266;-77
2022/10/06 00:54:50;;;;;;;7.93;1.90;;;14.20;99.90;;;;;;4958859;28;20170;-79
2022/10/06 00:57:18;;;;;;;6.10;1.65;;;14.30;99.90;;;;;;4958116;28;20183;-77
2022/10/06 00:59:44;;;;;;;5.80;1.50;;;14.30;99.90;;;;;;4957460;28;20177;-78
2022/10/06 01:02:21;;;;;;;6.85;1.92;;;14.30;99.90;;;;;;4971037;28;20206;-79
2022/10/06 01:04:51;;;;;;;5.47;1.13;;;14.20;99.90;;;;;;4956335;28;20170;-78
2022/10/06 01:07:20;;;;;;;12.20;1.88;;;14.20;99.90;;;;;;4956534;28;20552;-77
2022/10/06 01:09:46;;;;;;;8.73;1.83;;;14.20;99.90;;;;;;4958627;28;20194;-78
2022/10/06 01:12:12;;;;;;;5.03;1.52;;;14.30;99.90;;;;;;4956497;28;20190;-78
2022/10/06 01:14:40;;;;;;;7.13;1.38;;;14.20;99.90;;;;;;4957324;28;20178;-80
2022/10/06 01:17:43;;;;;;;12.88;1.50;;;14.20;99.90;;;;;;4959350;28;20210;-84
2022/10/06 01:20:14;;;;;;;6.82;1.30;;;14.00;99.90;;;;;;4960247;28;20640;-81
2022/10/06 01:22:52;;;;;;;10.30;1.73;;;14.00;99.90;;;;;;4960640;28;20182;-78
2022/10/06 01:25:19;;;;;;;9.20;2.05;;;14.10;99.90;;;;;;4961575;28;20632;-88
2022/10/06 01:27:52;;;;;;;8.68;1.70;;;14.00;99.90;;;;;;4960277;28;20567;-80
2022/10/06 01:30:24;;;;;;;7.45;1.67;;;13.90;99.90;;;;;;4962983;28;20171;-81
2022/10/06 01:32:50;;;;;;;9.55;1.45;;;13.90;99.90;;;;;;4976235;28;20193;-81
2022/10/06 01:35:16;;;;;;;8.75;1.33;;;14.00;99.90;;;;;;4957953;28;20171;-78
2022/10/06 01:37:41;;;;;;;11.15;2.00;;;13.90;99.90;;;;;;4957545;29;20175;-84
2022/10/06 01:40:08;;;;;;;15.25;2.05;;;13.80;99.90;;;;;;4972074;28;20261;-78
2022/10/06 01:42:34;;;;;;;12.32;1.80;;;13.80;99.90;;;;;;4959830;28;20194;-78
2022/10/06 01:45:00;;;;;;;6.85;1.52;;;13.90;99.90;;;;;;4966415;28;20177;-77
2022/10/06 01:47:26;;;;;;;14.23;2.22;;;13.90;99.90;;;;;;4978890;28;20191;-80
2022/10/06 01:49:51;;;;;;;14.85;3.40;;;13.80;99.90;;;;;;4966379;28;20189;-79
2022/10/06 01:52:18;;;;;;;7.53;2.25;;;13.60;99.90;;;;;;4960208;28;20668;-78
2022/10/06 01:54:44;;;;;;;15.50;2.00;;;13.60;99.90;;;;;;4955703;28;20632;-80
2022/10/06 01:57:09;;;;;;;8.00;1.52;;;13.60;99.90;;;;;;4955314;28;20165;-81
2022/10/06 01:59:35;;;;;;;7.95;1.33;;;13.60;99.90;;;;;;4955327;28;20181;-78
2022/10/06 02:02:01;;;;;;;14.25;2.47;;;13.60;99.90;;;;;;4955001;28;20727;-79
2022/10/06 02:04:27;;;;;;;8.73;1.45;;;13.70;99.90;;;;;;4955187;28;20174;-80
2022/10/06 02:06:54;;;;;;;19.85;2.15;;;13.70;99.90;;;;;;4954852;28;20177;-78
2022/10/06 02:09:20;;;;;;;10.27;1.13;;;13.80;99.90;;;;;;4955036;28;20234;-79
2022/10/06 02:11:46;;;;;;;8.95;1.80;;;13.80;99.90;;;;;;4954859;28;20269;-78
2022/10/06 02:14:12;;;;;;;10.18;1.75;;;13.90;99.90;;;;;;4953626;29;20262;-79
2022/10/06 02:16:38;;;;;;;5.43;1.50;;;13.80;99.90;;;;;;4954951;28;20167;-80
2022/10/06 02:19:03;;;;;;;10.57;1.98;;;13.70;99.90;;;;;;4956667;28;20165;-80
2022/10/06 02:21:29;;;;;;;10.05;1.65;;;13.60;99.90;;;;;;4955107;28;20277;-81
2022/10/06 02:23:55;;;;;;;7.97;1.55;;;13.80;99.90;;;;;;4955026;28;20198;-83
2022/10/06 02:26:20;;;;;;;4.20;1.55;;;13.60;99.90;;;;;;4953407;29;20178;-80
2022/10/06 02:28:48;;;;;;;14.50;2.35;;;13.70;99.90;;;;;;4955678;29;20217;-80
2022/10/06 02:31:15;;;;;;;12.15;2.15;;;13.60;99.90;;;;;;4954783;28;20199;-79
2022/10/06 02:33:41;;;;;;;8.95;1.73;;;13.50;99.90;;;;;;4956057;28;20206;-81
2022/10/06 02:36:09;;;;;;;12.38;2.20;;;13.50;99.90;;;;;;4954674;28;20629;-79
2022/10/06 02:38:35;;;;;;;6.20;1.40;;;13.70;99.90;;;;;;4960787;28;20174;-79
2022/10/06 02:41:02;;;;;;;6.78;1.67;;;13.80;99.90;;;;;;4959057;28;20186;-79
2022/10/06 02:43:28;;;;;;;10.93;1.70;;;13.70;99.90;;;;;;4960466;28;20554;-78
2022/10/06 02:46:06;;;;;;;7.32;1.73;;;13.60;99.90;;;;;;4957759;28;20246;-85
2022/10/06 02:48:34;;;;;;;9.02;1.85;;;13.50;99.90;;;;;;4957615;28;20240;-82
2022/10/06 02:51:03;;;;;;;11.63;1.63;;;13.40;99.90;;;;;;4956328;28;20668;-78
2022/10/06 02:53:29;;;;;;;11.52;1.83;;;13.50;99.90;;;;;;4955448;28;20170;-78
2022/10/06 02:56:09;;;;;;;11.05;2.40;;;13.40;99.90;;;;;;4956153;28;20217;-80
2022/10/06 02:58:37;;;;;;;9.68;1.85;;;13.40;99.90;;;;;;4961139;28;20636;-78
2022/10/06 03:01:05;;;;;;;10.00;1.48;;;13.30;99.90;;;;;;4960697;28;20268;-80
2022/10/06 03:03:33;;;;;;;10.82;1.73;;;13.40;99.90;;;;;;4961919;28;20177;-86
2022/10/06 03:06:23;;;;;;;11.35;2.22;;;13.50;99.90;;;;;;4961551;28;20551;-80
2022/10/06 03:08:57;;;;;;;8.30;1.58;;;13.40;99.90;;;;;;4961061;29;20206;-79
2022/10/06 03:11:35;;;;;;;8.57;1.67;;;13.40;99.90;;;;;;4961461;28;20178;-79
2022/10/06 03:14:01;;;;;;;10.02;2.30;;;13.50;99.90;;;;;;4961498;28;20742;-82
2022/10/06 03:16:28;;;;;;;13.27;1.65;;;13.40;99.90;;;;;;4961613;28;20178;-79
2022/10/06 03:18:56;;;;;;;12.02;2.45;;;13.30;99.90;;;;;;4961891;28;20567;-80
2022/10/06 03:21:24;;;;;;;6.70;2.20;;;13.30;99.90;;;;;;4961139;28;20189;-77
2022/10/06 03:23:52;;;;;;;8.07;1.95;;;13.30;99.90;;;;;;4965031;28;20175;-78
2022/10/06 03:26:21;;;;;;;5.80;1.58;;;13.20;99.90;;;;;;4963732;28;20167;-80
2022/10/06 03:28:47;;;;;;;11.65;1.30;;;13.10;99.90;;;;;;4963953;28;20574;-77
2022/10/06 03:31:14;;;;;;;5.80;1.10;;;13.10;99.90;;;;;;4960800;28;20191;-80
2022/10/06 03:33:40;;;;;;;5.88;2.00;;;13.10;99.90;;;;;;4975972;28;20398;-79
2022/10/06 03:36:19;;;;;;;5.25;1.83;;;13.20;99.90;;;;;;4959994;28;20174;-78
2022/10/06 03:38:45;;;;;;;11.60;2.17;;;13.20;99.90;;;;;;4962253;28;20258;-85
2022/10/06 03:41:13;;;;;;;14.80;1.95;;;13.20;99.90;;;;;;4960033;28;20194;-78
2022/10/06 03:43:41;;;;;;;8.38;2.05;;;13.30;99.90;;;;;;4961186;28;20652;-79
2022/10/06 03:46:07;;;;;;;10.93;1.80;;;13.30;99.90;;;;;;4961512;28;20255;-79
2022/10/06 03:48:34;;;;;;;14.60;1.95;;;13.40;99.90;;;;;;4960650;29;20206;-84
2022/10/06 03:51:02;;;;;;;8.43;1.45;;;13.40;99.90;;;;;;4961295;28;20230;-78
2022/10/06 03:53:29;;;;;;;10.13;1.67;;;13.40;99.90;;;;;;4961505;28;20225;-79
2022/10/06 03:56:09;;;;;;;9.38;1.70;;;13.30;99.90;;;;;;4977398;28;20230;-78
2022/10/06 03:58:37;;;;;;;12.70;1.88;;;13.30;99.90;;;;;;4976756;28;20237;-79
2022/10/06 04:01:08;;;;;;;10.93;1.52;;;13.20;99.90;;;;;;4961176;28;20277;-77
2022/10/06 04:03:36;;;;;;;16.88;2.10;;;13.30;99.90;;;;;;4960794;28;20186;-80
2022/10/06 04:06:06;;;;;;;11.35;2.03;;;13.20;99.90;;;;;;4960046;28;20178;-81
2022/10/06 04:08:33;;;;;;;18.30;2.58;;;13.20;99.90;;;;;;4959214;28;20202;-82
2022/10/06 04:11:16;;;;;;;16.90;2.20;;;13.20;99.90;;;;;;4975258;28;20194;-80
2022/10/06 04:13:43;;;;;;;8.98;1.35;;;13.30;99.90;;;;;;4959115;28;20177;-79
2022/10/06 04:16:16;;;;;;;8.75;2.15;;;13.10;99.90;;;;;;4957383;29;20171;-79
2022/10/06 04:18:44;;;;;;;5.72;1.52;;;13.10;99.90;;;;;;4960606;28;20174;-79
2022/10/06 04:21:11;;;;;;;16.00;3.03;;;13.20;99.90;;;;;;4995460;28;20167;-78
2022/10/06 04:23:36;;;;;;;12.48;2.33;;;13.10;99.90;;;;;;4968389;28;20261;-81
2022/10/06 04:26:08;;;;;;;12.02;2.28;;;13.20;99.90;;;;;;4957682;29;20209;-81
2022/10/06 04:28:37;;;;;;;8.15;1.90;;;13.10;99.90;;;;;;4957290;28;20211;-80
2022/10/06 04:31:10;;;;;;;13.57;2.42;;;13.20;99.90;;;;;;4957132;28;20625;-82
2022/10/06 04:33:36;;;;;;;13.35;2.83;;;13.10;99.90;;;;;;4956926;28;20173;-80
2022/10/06 04:36:05;;;;;;;11.10;2.25;;;13.10;99.90;;;;;;4960429;29;20175;-79
2022/10/06 04:38:35;;;;;;;13.18;2.17;;;13.20;99.90;;;;;;4971787;28;20648;-81
2022/10/06 04:41:10;;;;;;;8.32;1.98;;;13.10;99.90;;;;;;4957009;28;20190;-80
2022/10/06 04:43:35;;;;;;;10.82;1.90;;;12.90;99.90;;;;;;4957768;28;20244;-79
2022/10/06 04:46:01;;;;;;;9.73;2.58;;;13.00;99.90;;;;;;4958738;29;20269;-78
2022/10/06 04:48:29;;;;;;;19.65;2.17;;;13.10;99.90;;;;;;4958841;28;20206;-77
2022/10/06 04:50:58;;;;;;;7.00;1.98;;;13.10;99.90;;;;;;4956899;28;20193;-79
2022/10/06 04:53:24;;;;;;;13.32;2.13;;;13.00;99.90;;;;;;4956624;29;20254;-79
2022/10/06 04:56:05;;;;;;;8.38;2.10;;;13.00;99.90;;;;;;4956846;28;20222;-79
2022/10/06 04:58:36;;;;;;;13.48;1.48;;;13.00;99.90;;;;;;4956488;28;20205;-79
2022/10/06 05:01:03;;;;;;;11.70;2.40;;;13.00;99.90;;;;;;4956373;28;20194;-80
2022/10/06 05:03:30;;;;;;;21.38;2.22;;;13.00;99.90;;;;;;4958445;28;20170;-80
2022/10/06 05:06:18;;;;;;;20.90;2.20;;;12.90;99.90;;;;;;4957907;28;20684;-81
2022/10/06 05:08:50;;;;;;;8.43;1.58;;;12.80;99.90;;;;;;4959772;28;20217;-79
2022/10/06 05:11:17;;;;;;;8.60;2.13;;;12.70;99.90;;;;;;4957985;28;20556;-86
2022/10/06 05:13:43;;;;;;;13.20;1.90;;;12.60;99.90;;;;;;4956048;29;20179;-82
2022/10/06 05:16:13;;;;;;;18.08;2.42;;;12.60;99.90;;;;;;4957498;29;20163;-78
2022/10/06 05:18:39;;;;;;;12.93;2.50;;;12.60;99.90;;;;;;4955875;28;20663;-79
2022/10/06 05:21:10;;;;;;;9.90;2.00;;;12.70;99.90;;;;;;4955630;28;20194;-77
2022/10/06 05:23:37;;;;;;;20.63;2.42;;;12.60;99.90;;;;;;4958533;28;20163;-81
2022/10/06 05:26:03;;;;;;;6.80;2.30;;;12.70;99.90;;;;;;4956082;28;20174;-78
2022/10/06 05:28:30;;;;;;;5.28;1.50;;;12.70;99.90;;;;;;4954364;29;20568;-78
2022/10/06 05:30:58;;;;;;;17.50;2.78;;;12.70;99.90;;;;;;4955412;28;20600;-80
2022/10/06 05:33:25;;;;;;;12.70;1.90;;;12.60;99.90;;;;;;4955409;28;20253;-80
2022/10/06 05:35:53;;;;;;;15.55;2.35;;;12.60;99.90;;;;;;4955552;28;20648;-79
2022/10/06 05:38:18;;;;;;;14.50;2.13;;;12.50;99.90;;;;;;4956050;28;20175;-79
2022/10/06 05:40:44;;;;;;;12.70;2.05;;;12.60;99.90;;;;;;4956214;28;20191;-82
2022/10/06 05:43:09;;;;;;;20.35;2.10;;;12.60;99.90;;;;;;4955759;29;20611;-78
2022/10/06 05:45:35;;;;;;;15.05;2.15;;;12.50;99.90;;;;;;4956492;29;20178;-79
2022/10/06 05:48:01;;;;;;;15.68;2.78;;;12.60;99.90;;;;;;4955942;29;20210;-83
2022/10/06 05:50:26;;;;;;;11.68;2.22;;;12.60;99.90;;;;;;4955358;28;20658;-78
2022/10/06 05:52:54;;;;;;;18.48;2.25;;;12.70;99.90;;;;;;4954586;29;20182;-85
2022/10/06 05:55:19;;;;;;;11.10;2.35;;;12.70;99.90;;;;;;4955424;28;20184;-81
2022/10/06 05:57:45;;;;;;;25.70;2.85;;;12.70;99.90;;;;;;4955097;29;20632;-84
2022/10/06 06:00:11;;;;;;;14.50;2.08;;;12.80;99.90;;;;;;4955279;29;20178;-78
2022/10/06 06:02:36;;;;;;;15.43;1.92;;;12.80;99.90;;;;;;4956159;28;20308;-82
2022/10/06 06:05:02;;;;;;;15.45;3.03;;;12.90;99.90;;;;;;4956156;29;20256;-81
2022/10/06 06:07:28;;;;;;;15.15;2.33;;;12.80;99.90;;;;;;4957359;28;20206;-83
2022/10/06 06:09:53;;;;;;;9.50;1.95;;;12.80;99.90;;;;;;4956454;29;20179;-84
2022/10/06 06:12:19;;;;;;;12.68;3.17;;;12.70;99.90;;;;;;4954358;28;20195;-80
2022/10/06 06:17:32;;;;;;;12.05;2.65;;;12.70;99.90;;;;;;4955839;29;20190;-81
2022/10/06 06:19:58;;;;;;;14.45;2.13;;;12.70;99.90;;;;;;4956978;28;20392;-78
2022/10/06 06:22:23;;;;;;;10.73;1.98;;;12.60;99.90;;;;;;4955109;28;20233;-84
2022/10/06 06:24:49;;;;;;;12.18;2.75;;;12.70;99.90;;;;;;4955093;29;20225;-79
2022/10/06 06:27:15;;;;;;;13.65;2.35;;;12.70;99.90;;;;;;4953498;29;20225;-78
2022/10/06 06:29:41;;;;;;;11.35;2.28;;;12.70;99.90;;;;;;4955039;29;20587;-77
2022/10/06 06:32:09;;;;;;;10.00;2.17;;;12.70;99.90;;;;;;4954339;28;20579;-79
2022/10/06 06:34:35;;;;;;;24.33;2.63;;;12.70;99.90;;;;;;4954564;28;20462;-77
2022/10/06 06:37:02;;;;;;;17.17;2.47;;;12.60;99.90;;;;;;4955813;29;20212;-78
2022/10/06 06:39:27;;;;;;;18.63;2.63;;;12.50;99.90;;;;;;4953746;29;20196;-79
2022/10/06 06:41:55;;;;;;;8.40;2.10;;;12.50;99.90;;;;;;4954698;28;20572;-78
2022/10/06 06:44:21;;;;;;;20.52;2.55;;;12.50;99.90;;;;;;4954873;28;20221;-80
2022/10/06 06:46:48;;;;;;;15.63;2.55;;;12.50;99.90;;;;;;4955189;28;20190;-76
2022/10/06 06:49:15;;;;;;;11.50;2.17;;;12.70;99.90;;;;;;4954485;29;20298;-78
2022/10/06 06:51:43;;;;;;;16.92;2.58;;;12.60;99.90;;;;;;4971529;28;20210;-77
2022/10/06 06:54:10;;;;;;;13.90;2.65;;;12.60;99.90;;;;;;4963902;28;20170;-80
2022/10/06 06:56:37;;;;;;;6.88;1.90;;;12.60;99.90;;;;;;4955077;28;20235;-78
2022/10/06 06:59:09;;;;;;;15.10;2.30;;;12.60;99.90;;;;;;4969623;28;20592;-79
2022/10/06 07:01:35;;;;;;;10.35;2.17;;;12.70;99.90;;;;;;4955601;28;20190;-79
2022/10/06 07:04:01;;;;;;;8.63;2.05;;;12.80;99.90;;;;;;4955249;28;20480;-83
2022/10/06 07:06:29;;;;;;;10.07;1.63;;;12.90;99.90;;;;;;4955053;28;20170;-77
2022/10/06 07:08:56;;;;;;;13.60;1.95;;;12.90;99.90;;;;;;4952954;29;20210;-78
2022/10/06 07:11:28;;;;;;;9.73;2.38;;;13.00;99.90;;;;;;4954218;28;20193;-82
2022/10/06 07:14:03;;;;;;;5.25;1.98;;;13.10;99.90;;;;;;4955101;28;20628;-79
2022/10/06 07:25:35;;;;;;;12.93;2.35;;;13.20;99.90;;;;;;4954010;29;20531;-80
2022/10/06 07:28:01;;;;;;;18.05;2.08;;;13.40;99.90;;;;;;4964414;28;20636;-80
2022/10/06 07:30:28;;;;;;;8.45;2.03;;;13.50;99.90;;;;;;4969078;28;20275;-79
2022/10/06 07:32:54;;;;;;;8.65;2.13;;;13.50;99.90;;;;;;4953964;28;20189;-80
2022/10/06 07:35:21;;;;;;;7.72;1.75;;;13.60;99.90;;;;;;4954716;29;20277;-78
2022/10/06 07:37:48;;;;;;;15.98;1.98;;;13.70;99.90;;;;;;4954604;28;20190;-79
2022/10/06 07:40:14;;;;;;;18.63;2.63;;;13.70;99.90;;;;;;4960519;28;20277;-79
2022/10/06 07:42:47;;;;;;;11.70;2.10;;;13.70;99.90;;;;;;4959320;28;20216;-78
2022/10/06 07:47:59;;;;;;;23.45;2.00;;;13.70;99.90;;;;;;4957679;29;20594;-78
2022/10/06 07:50:24;;;;;;;12.88;1.80;;;13.80;99.90;;;;;;4959649;28;20213;-79
2022/10/06 07:52:50;;;;;;;14.52;2.63;;;13.60;99.90;;;;;;4957724;29;20166;-80
2022/10/06 07:55:17;;;;;;;8.82;1.90;;;13.60;99.90;;;;;;4959649;29;20171;-78
2022/10/06 07:57:45;;;;;;;17.23;2.75;;;13.60;99.90;;;;;;4957361;28;20712;-78
2022/10/06 08:00:14;;;;;;;10.60;1.52;;;13.70;99.90;;;;;;4957386;28;20194;-79
2022/10/06 08:02:41;;;;;;;9.43;2.03;;;13.70;99.90;;;;;;4957588;28;20591;-82
2022/10/06 08:05:07;;;;;;;8.80;1.70;;;13.90;99.90;;;;;;4957351;28;20178;-79
2022/10/06 08:07:33;;;;;;;16.08;1.63;;;13.80;99.90;;;;;;4971934;28;20237;-78
2022/10/06 08:10:00;;;;;;;11.18;1.83;;;13.90;99.90;;;;;;4957417;28;20194;-78
2022/10/06 08:12:32;;;;;;;8.88;2.13;;;14.00;99.90;;;;;;4971833;28;20186;-82
2022/10/06 08:15:00;;;;;;;10.35;2.10;;;13.90;99.90;;;;;;4957312;29;20163;-79
2022/10/06 08:17:26;;;;;;;10.73;1.77;;;14.10;99.90;;;;;;4959190;28;20171;-78
2022/10/06 08:19:53;;;;;;;10.50;1.98;;;14.20;99.90;;;;;;4962030;29;20198;-82
2022/10/06 08:22:19;;;;;;;6.65;1.65;;;14.40;99.90;;;;;;4958938;28;20194;-78
2022/10/06 08:24:44;;;;;;;11.20;2.25;;;14.30;99.90;;;;;;4959048;28;20179;-78
2022/10/06 08:27:10;;;;;;;14.20;1.92;;;14.30;99.90;;;;;;4957280;29;20167;-90
2022/10/06 08:29:35;;;;;;;11.27;1.92;;;14.40;99.90;;;;;;4957406;29;20554;-78
2022/10/06 08:32:01;;;;;;;10.50;2.30;;;14.50;99.90;;;;;;4956808;28;20190;-87
2022/10/06 08:34:27;;;;;;;10.50;2.08;;;14.50;99.90;;;;;;4957133;28;20177;-85
2022/10/06 08:36:53;;;;;;;11.43;1.77;;;14.60;99.90;;;;;;4960902;29;20175;-86
2022/10/06 08:39:19;;;;;;;7.75;1.67;;;14.60;99.90;;;;;;4974741;28;20175;-80
2022/10/06 08:41:52;;;;;;;5.47;1.67;;;14.70;99.90;;;;;;4961462;28;20210;-78
2022/10/06 08:44:39;;;;;;;12.43;2.38;;;14.70;99.90;;;;;;4959122;28;20190;-78
2022/10/06 08:47:13;;;;;;;6.72;2.20;;;14.80;99.90;;;;;;4960390;29;20169;-79
2022/10/06 08:49:43;;;;;;;5.25;1.80;;;14.90;99.90;;;;;;4961981;28;20190;-79
2022/10/06 08:52:47;;;;;;;10.45;1.38;;;14.90;99.90;;;;;;4960465;28;20218;-90
2022/10/06 08:55:29;;;;;;;6.30;2.05;;;15.00;99.90;;;;;;4959809;28;20182;-83
2022/10/06 08:58:15;;;;;;;11.38;2.35;;;15.10;99.90;;;;;;4956378;29;20178;-78
2022/10/06 09:00:41;;;;;;;6.20;1.08;;;15.10;99.90;;;;;;4956486;28;20186;-82
2022/10/06 09:03:23;;;;;;;6.63;1.33;;;15.10;99.90;;;;;;4956835;29;20225;-86
2022/10/06 09:06:17;;;;;;;8.55;1.98;;;15.20;99.90;;;;;;4958290;29;20166;-83
2022/10/06 09:08:50;;;;;;;10.13;2.00;;;15.30;99.90;;;;;;4958088;28;20240;-78
2022/10/06 09:11:24;;;;;;;13.68;2.28;;;15.30;99.90;;;;;;4958917;28;20250;-88
2022/10/06 09:13:56;;;;;;;8.60;1.50;;;15.40;99.90;;;;;;4956931;29;20180;-79
2022/10/06 09:16:29;;;;;;;7.70;1.30;;;15.40;99.90;;;;;;4956202;28;20225;-78
2022/10/06 09:19:12;;;;;;;11.00;1.65;;;15.60;99.90;;;;;;4956423;28;20179;-78
2022/10/06 09:21:44;;;;;;;16.83;1.92;;;15.80;99.90;;;;;;4956154;28;20186;-78
2022/10/06 09:24:14;;;;;;;7.93;1.92;;;15.90;99.90;;;;;;4962003;28;20166;-78
2022/10/06 09:26:42;;;;;;;10.55;1.30;;;15.90;99.90;;;;;;4977657;28;20186;-78
2022/10/06 09:29:09;;;;;;;5.18;1.17;;;15.90;99.90;;;;;;4970765;28;20209;-78
2022/10/06 09:31:52;;;;;;;11.55;1.40;;;15.80;99.90;;;;;;4957499;28;20187;-79
2022/10/06 09:34:51;;;;;;;12.65;1.95;;;15.70;99.90;;;;;;4956289;29;20589;-92
2022/10/06 09:37:16;;;;;;;10.80;1.40;;;15.70;99.90;;;;;;4956106;28;20166;-79
2022/10/06 09:39:47;;;;;;;10.88;2.03;;;15.80;99.90;;;;;;4957164;29;20167;-85
2022/10/06 09:42:23;;;;;;;5.43;1.25;;;15.70;99.90;;;;;;4954799;28;20668;-78
2022/10/06 09:44:50;;;;;;;5.35;1.48;;;15.70;99.90;;;;;;4956511;28;20189;-82
2022/10/06 09:47:23;;;;;;;5.95;1.75;;;15.70;99.90;;;;;;4955628;28;20171;-91
2022/10/06 09:50:08;;;;;;;8.02;1.90;;;15.90;99.90;;;;;;4956144;28;20260;-79
2022/10/06 09:52:34;;;;;;;17.77;2.50;;;15.90;99.90;;;;;;4955710;28;20265;-78
2022/10/06 09:55:14;;;;;;;7.45;1.55;;;16.00;99.90;;;;;;4955421;29;20217;-77
2022/10/06 09:57:52;;;;;;;6.55;1.70;;;16.00;99.90;;;;;;4970318;28;20190;-79
2022/10/06 10:00:46;;;;;;;6.07;1.10;;;16.10;99.90;;;;;;4954782;28;20224;-78
2022/10/06 10:03:12;;;;;;;7.95;1.67;;;16.20;99.90;;;;;;4952526;29;20649;-79
2022/10/06 10:05:44;;;;;;;8.18;1.20;;;16.10;99.90;;;;;;4955274;29;20213;-78
2022/10/06 10:08:13;;;;;;;4.22;1.10;;;16.20;99.90;;;;;;4954413;28;20202;-85
2022/10/06 10:10:39;;;;;;;5.32;1.05;;;16.30;99.90;;;;;;4954878;28;20187;-78
2022/10/06 10:13:23;;;;;;;6.05;1.30;;;16.20;99.90;;;;;;4954986;28;20806;-82
2022/10/06 10:15:53;;;;;;;11.77;1.45;;;16.10;99.90;;;;;;4955043;28;20171;-79
2022/10/06 10:18:25;;;;;;;7.70;1.10;;;16.10;99.90;;;;;;4955165;28;20241;-79
2022/10/06 10:20:56;;;;;;;3.95;1.05;;;16.20;99.90;;;;;;4955016;28;20205;-82
2022/10/06 10:23:35;;;;;;;5.60;0.98;;;16.30;99.90;;;;;;4955775;29;20167;-87
2022/10/06 10:26:29;;;;;;;5.45;1.17;;;16.30;99.90;;;;;;4955390;28;20173;-79
2022/10/06 10:29:30;;;;;;;9.88;0.98;;;16.30;99.90;;;;;;4925501;28;20232;-82
2022/10/06 10:32:20;;;;;;;6.38;1.13;;;16.40;99.90;;;;;;4877058;29;20279;-83
2022/10/06 10:35:16;;;;;;;5.32;1.27;;;16.30;99.90;;;;;;4965591;28;20225;-78
2022/10/06 10:37:50;;;;;;;6.28;1.20;;;16.20;99.90;;;;;;4953861;29;20212;-80
2022/10/06 10:40:35;;;;;;;6.60;1.27;;;16.20;99.90;;;;;;4954431;28;20261;-78
2022/10/06 10:43:16;;;;;;;6.22;1.88;;;16.30;99.90;;;;;;4952423;29;20654;-84
2022/10/06 10:45:56;;;;;;;3.83;2.40;;;16.30;99.90;;;;;;4953718;29;20202;-78
2022/10/06 10:48:46;;;;;;;7.53;1.73;;;16.10;99.90;;;;;;4955180;28;20205;-84
2022/10/06 10:51:35;;;;;;;9.45;2.08;;;16.30;99.90;;;;;;4955283;28;20186;-79
2022/10/06 10:54:09;;;;;;;2.80;1.20;;;16.40;99.90;;;;;;4955377;28;20167;-86
2022/10/06 10:56:35;;;;;;;4.30;1.45;;;16.40;99.90;;;;;;4955006;28;20179;-84
2022/10/06 10:59:15;;;;;;;4.03;1.08;;;16.50;99.90;;;;;;4954493;28;20191;-78
2022/10/06 11:02:09;;;;;;;3.60;0.93;;;16.60;99.90;;;;;;4954461;28;20769;-80
2022/10/06 11:04:46;;;;;;;6.60;1.10;;;16.60;99.90;;;;;;4953894;29;20546;-79
2022/10/06 11:07:16;;;;;;;7.25;1.00;;;16.60;99.90;;;;;;4958468;28;20248;-79
2022/10/06 11:09:42;;;;;;;10.20;1.30;;;16.60;99.90;;;;;;4973376;28;20217;-82
2022/10/06 11:12:15;;;;;;;5.90;1.20;;;16.60;99.90;;;;;;4973245;28;20189;-79
2022/10/06 11:15:09;;;;;;;1.80;1.05;;;16.70;99.90;;;;;;4987417;28;20202;-80
2022/10/06 11:17:45;;;;;;;2.90;1.50;;;16.70;99.90;;;;;;4972447;28;20189;-90
2022/10/06 11:20:18;;;;;;;7.82;1.40;;;16.80;99.90;;;;;;4992983;28;20224;-80
2022/10/06 11:23:10;;;;;;;8.40;1.30;;;16.90;99.90;;;;;;4977573;28;20174;-87
2022/10/06 11:26:14;;;;;;;3.97;0.85;;;16.90;99.90;;;;;;4980981;28;20198;-80
2022/10/06 11:28:58;;;;;;;8.82;1.15;;;16.90;99.90;;;;;;4971530;28;20221;-79
2022/10/06 11:31:39;;;;;;;8.70;1.33;;;16.90;99.90;;;;;;4978048;28;20186;-79
2022/10/06 11:34:05;;;;;;;3.65;0.88;;;16.90;99.90;;;;;;4978321;28;20236;-79
2022/10/06 11:36:59;;;;;;;4.20;0.88;;;16.90;99.90;;;;;;4977664;28;20201;-82
2022/10/06 11:39:49;;;;;;;6.90;0.98;;;16.80;99.90;;;;;;4974077;28;20241;-91
2022/10/06 11:42:23;;;;;;;7.68;1.00;;;16.70;99.90;;;;;;4978412;28;20193;-88
2022/10/06 11:44:58;;;;;;;5.60;1.45;;;16.80;99.90;;;;;;4979401;28;20706;-79
2022/10/06 11:47:30;;;;;;;2.88;0.95;;;16.80;99.90;;;;;;4977440;28;20162;-90
2022/10/06 11:49:56;;;;;;;5.18;1.02;;;16.70;99.90;;;;;;4977795;28;20166;-89
2022/10/06 11:52:21;;;;;;;12.68;1.00;;;16.60;99.90;;;;;;4977328;28;20193;-83
2022/10/06 11:54:55;;;;;;;3.28;1.13;;;16.70;99.90;;;;;;4978914;28;20252;-81
2022/10/06 11:57:21;;;;;;;4.53;1.35;;;16.70;99.90;;;;;;4984657;28;20173;-79
2022/10/06 11:59:51;;;;;;;7.75;1.30;;;16.70;99.90;;;;;;4989268;28;20178;-80
2022/10/06 12:02:28;;;;;;;2.47;1.00;;;16.70;99.90;;;;;;4998416;28;20282;-78
2022/10/06 12:05:13;;;;;;;2.05;0.75;;;16.70;99.90;;;;;;4992279;28;20178;-87
2022/10/06 12:07:54;;;;;;;4.75;0.85;;;16.80;99.90;;;;;;4978049;28;20194;-82
2022/10/06 12:10:48;;;;;;;1.35;0.80;;;16.80;99.90;;;;;;4977018;28;20170;-79
2022/10/06 12:13:30;;;;;;;5.55;0.98;;;16.90;99.90;;;;;;4977411;28;20170;-78
2022/10/06 12:16:00;;;;;;;3.17;0.75;;;16.90;99.90;;;;;;4977139;28;20173;-78
2022/10/06 12:18:47;;;;;;;2.88;0.77;;;16.90;99.90;;;;;;4977059;28;20174;-80
2022/10/06 12:21:29;;;;;;;4.15;1.70;;;16.80;99.90;;;;;;4976462;28;20236;-80
2022/10/06 12:24:15;;;;;;;4.82;1.45;;;16.90;99.90;;;;;;4979300;28;20196;-83
2022/10/06 12:26:48;;;;;;;16.15;1.13;;;16.90;99.90;;;;;;4976401;28;20177;-88
2022/10/06 12:29:26;;;;;;;5.00;1.00;;;16.90;99.90;;;;;;4959434;28;20194;-88
2022/10/06 12:32:06;;;;;;;5.95;1.10;;;17.00;99.90;;;;;;4957853;28;20202;-80
2022/10/06 12:34:53;;;;;;;2.65;0.65;;;17.10;99.90;;;;;;4957218;28;20175;-81
2022/10/06 12:37:41;;;;;;;7.22;1.35;;;17.30;99.90;;;;;;4955072;28;20174;-87
2022/10/06 12:40:45;;;;;;;2.85;1.30;;;17.40;99.90;;;;;;4973417;28;20636;-80
2022/10/06 12:43:17;;;;;;;4.38;0.77;;;17.40;99.90;;;;;;4958032;28;20208;-81
2022/10/06 12:46:11;;;;;;;3.67;0.75;;;17.40;99.90;;;;;;4958471;28;20182;-82
2022/10/06 12:48:45;;;;;;;8.80;1.08;;;17.50;99.90;;;;;;4958707;28;20206;-84
2022/10/06 12:51:37;;;;;;;4.10;1.00;;;17.40;99.90;;;;;;4960939;28;20190;-81
2022/10/06 12:54:19;;;;;;;4.45;1.08;;;17.30;99.90;;;;;;4956859;28;20238;-85
2022/10/06 12:56:57;;;;;;;1.40;0.80;;;17.10;99.90;;;;;;4959444;28;20186;-81
2022/10/06 12:59:37;;;;;;;12.23;1.25;;;17.10;99.90;;;;;;4960990;28;20193;-90
2022/10/06 13:02:26;;;;;;;8.32;1.02;;;17.20;99.90;;;;;;4961982;28;20186;-81
2022/10/06 13:04:58;;;;;;;7.65;1.15;;;17.30;99.90;;;;;;4959628;28;20187;-81
2022/10/06 13:07:28;;;;;;;8.70;0.85;;;17.40;99.90;;;;;;4955567;28;20241;-80
2022/10/06 13:10:10;;;;;;;7.10;3.13;;;17.40;99.90;;;;;;4956183;28;20202;-85
2022/10/06 13:12:40;;;;;;;6.53;2.40;;;17.40;99.90;;;;;;4953172;28;20221;-81
2022/10/06 13:15:22;;;;;;;6.28;1.42;;;17.20;99.90;;;;;;4970782;28;20650;-81
2022/10/06 13:17:58;;;;;;;2.90;0.88;;;17.20;99.90;;;;;;4954755;28;20202;-82
2022/10/06 13:20:48;;;;;;;1.77;0.73;;;17.30;99.90;;;;;;4955631;28;20311;-82